aviador You're here:

CYMT Decoded Metar

CHIBOUGAMAU CHAP in QC, CANADA
Report Time2018-01-20 05:00:00
UTC Time2018-01-20 05:18:11
Flight Rules ifr IFR
Wind190° at 12 Gusting to 17 kt
W.Decomp.*RWY 22: 11.6 kt HW 2.9 kt LCW
W.Rank190° ranks 17
Current wind is above 190° avg. (7.8)
Visibility1609 m
Phenomena:Light Snow
Clouds:N/A
Expected CloudBase > 400 ft AGL from Temp-Dew spread
Ceiling1,000 ft
Temp-4°C (ISA -16)
Dew Point-5°C (93% RH)
AAT-10.9°C
QNH988 hPa
Density Alt171 ft
Elevation1,270 ft
Report Wrong Elevation
Raw Report
CYMT 200500Z AUTO 19012G17KT 1SM -SN VV010 M04/M05 A2919 RMK
PRESFR SLP911=

Extra information for CYMT:More info

Metar Taf Metar & Taf Last 4 Metars F.Rules Stats Wind Profile Meteogram Temp Stats Airport Information Weather charts Add Link Nearby VenuesMetar ALERT Operation Metar Decoded Social comments